createdAt,value
2018-07-28T00:01:52.722Z,9.53
2018-07-28T00:05:17.237Z,10.78
2018-07-28T00:08:42.102Z,15.43
2018-07-28T00:12:06.723Z,25.10
2018-07-28T00:15:31.173Z,16.62
2018-07-28T00:18:55.914Z,19.57
2018-07-28T00:22:20.674Z,14.35
2018-07-28T00:25:50.315Z,12.43
2018-07-28T00:29:14.783Z,10.32
2018-07-28T00:32:39.388Z,9.35
2018-07-28T00:36:03.869Z,8.48
2018-07-28T00:39:28.321Z,8.40
2018-07-28T00:42:52.789Z,12.65
2018-07-28T00:46:17.241Z,12.13
2018-07-28T00:49:41.878Z,11.90
2018-07-28T00:53:07.113Z,9.50
2018-07-28T00:56:31.580Z,11.10
2018-07-28T00:59:56.058Z,12.65
2018-07-28T01:03:20.491Z,9.45
2018-07-28T01:06:44.955Z,9.85
2018-07-28T01:10:09.495Z,11.70
2018-07-28T01:13:33.925Z,9.30
2018-07-28T01:16:58.421Z,9.95
2018-07-28T01:20:22.935Z,10.08
2018-07-28T01:23:47.355Z,9.63
2018-07-28T01:27:11.860Z,8.93
2018-07-28T01:30:36.411Z,10.08
2018-07-28T01:34:00.839Z,10.20
2018-07-28T01:37:25.391Z,10.38
2018-07-28T01:40:49.846Z,12.28
2018-07-28T01:44:14.294Z,9.58
2018-07-28T01:47:38.741Z,9.53
2018-07-28T01:51:03.184Z,10.72
2018-07-28T01:54:27.648Z,11.65
2018-07-28T01:57:52.105Z,14.65
2018-07-28T02:01:16.616Z,23.18
2018-07-28T02:04:41.105Z,23.87
2018-07-28T02:08:06.003Z,24.52
2018-07-28T02:11:30.649Z,22.15
2018-07-28T02:14:55.127Z,15.60
2018-07-28T02:18:19.750Z,19.15
2018-07-28T02:21:44.201Z,23.57
2018-07-28T02:25:11.121Z,20.50
2018-07-28T02:28:35.545Z,14.15
2018-07-28T02:32:00.120Z,11.28
2018-07-28T02:35:24.562Z,14.68
2018-07-28T02:38:48.985Z,10.00
2018-07-28T02:42:13.594Z,10.95
2018-07-28T02:45:38.069Z,10.90
2018-07-28T02:49:02.514Z,18.85
2018-07-28T02:52:26.993Z,19.20
2018-07-28T02:55:51.430Z,15.78
2018-07-28T02:59:15.988Z,11.83
2018-07-28T03:02:40.613Z,15.00
2018-07-28T03:06:05.287Z,15.53
2018-07-28T03:09:29.775Z,16.37
2018-07-28T03:12:54.370Z,16.25
2018-07-28T03:16:18.829Z,17.52
2018-07-28T03:19:43.455Z,21.52
2018-07-28T03:23:07.990Z,12.43
2018-07-28T03:26:32.627Z,10.58
2018-07-28T03:29:57.071Z,10.68
2018-07-28T03:33:21.535Z,13.25
2018-07-28T03:36:46.101Z,13.93
2018-07-28T03:40:10.742Z,13.50
2018-07-28T03:43:35.272Z,14.23
2018-07-28T03:46:59.722Z,13.45
2018-07-28T03:50:24.250Z,15.15
2018-07-28T03:53:48.696Z,15.83
2018-07-28T03:57:13.154Z,13.45
2018-07-28T04:00:37.718Z,12.63
2018-07-28T04:04:02.262Z,9.48
2018-07-28T04:07:26.446Z,13.08
2018-07-28T04:10:50.900Z,9.40
2018-07-28T04:14:15.371Z,10.40
2018-07-28T04:17:50.534Z,12.40
2018-07-28T04:21:15.126Z,11.48
2018-07-28T04:24:39.575Z,14.07
2018-07-28T04:28:04.022Z,10.88
2018-07-28T04:31:28.766Z,7.95
2018-07-28T04:34:53.302Z,9.90
2018-07-28T04:38:17.741Z,15.85
2018-07-28T04:41:43.213Z,10.53
2018-07-28T04:45:08.084Z,12.43
2018-07-28T04:48:32.788Z,10.72
2018-07-28T04:51:57.378Z,10.85
2018-07-28T04:55:21.929Z,7.60
2018-07-28T04:58:46.538Z,13.65
2018-07-28T05:02:11.121Z,10.72
2018-07-28T05:05:35.687Z,8.55
2018-07-28T05:09:00.274Z,10.38
2018-07-28T05:12:25.148Z,10.05
2018-07-28T05:15:49.595Z,12.00
2018-07-28T05:19:14.756Z,14.00
2018-07-28T05:22:39.215Z,9.60
2018-07-28T05:26:03.856Z,12.00
2018-07-28T05:29:28.492Z,11.95
2018-07-28T05:32:52.975Z,13.98
2018-07-28T05:36:17.595Z,9.68
2018-07-28T05:39:42.269Z,8.30
2018-07-28T05:43:07.330Z,12.80
2018-07-28T05:46:31.974Z,9.75
2018-07-28T05:49:56.514Z,7.97
2018-07-28T05:53:21.074Z,11.95
2018-07-28T05:56:45.785Z,6.42
2018-07-28T06:00:10.796Z,10.10
2018-07-28T06:03:35.813Z,9.40
2018-07-28T06:07:00.395Z,6.58
2018-07-28T06:10:25.412Z,11.08
2018-07-28T06:13:57.054Z,7.80
2018-07-28T06:17:45.010Z,14.07
2018-07-28T06:21:32.862Z,12.13
2018-07-28T06:25:16.231Z,11.88
2018-07-28T06:28:51.416Z,10.75
2018-07-28T06:32:33.862Z,11.33
2018-07-28T06:36:16.113Z,12.73
2018-07-28T06:39:48.360Z,12.63
2018-07-28T06:46:51.156Z,7.95
2018-07-28T06:50:17.095Z,8.88
2018-07-28T06:53:41.974Z,9.80
2018-07-28T06:57:06.957Z,12.75
2018-07-28T07:00:31.721Z,10.08
2018-07-28T07:03:56.185Z,8.73
2018-07-28T07:07:20.915Z,10.48
2018-07-28T07:10:46.332Z,12.80
2018-07-28T07:14:12.852Z,10.08
2018-07-28T07:17:37.593Z,8.63
2018-07-28T07:21:02.275Z,13.13
2018-07-28T07:24:26.973Z,7.90
2018-07-28T07:27:51.834Z,14.20
2018-07-28T07:31:16.562Z,8.73
2018-07-28T07:34:41.036Z,14.70
2018-07-28T07:38:05.729Z,11.70
2018-07-28T07:41:30.442Z,11.80
2018-07-28T07:44:54.616Z,12.53
2018-07-28T07:48:19.045Z,13.30
2018-07-28T07:51:43.633Z,10.65
2018-07-28T07:55:08.355Z,11.22
2018-07-28T07:58:32.888Z,13.15
2018-07-28T08:01:57.350Z,11.63
2018-07-28T08:05:22.049Z,10.13
2018-07-28T08:08:46.726Z,10.93
2018-07-28T08:12:11.416Z,11.88
2018-07-28T08:15:36.114Z,9.15
2018-07-28T08:19:01.962Z,14.60
2018-07-28T08:22:31.187Z,13.25
2018-07-28T08:25:56.244Z,11.05
2018-07-28T08:29:20.788Z,13.48
2018-07-28T08:32:45.471Z,11.18
2018-07-28T08:36:13.248Z,10.50
2018-07-28T08:39:38.532Z,13.05
2018-07-28T08:43:04.582Z,9.75
2018-07-28T08:46:29.848Z,10.10
2018-07-28T08:49:54.475Z,12.90
2018-07-28T08:53:19.582Z,11.18
2018-07-28T08:56:44.582Z,12.05
2018-07-28T09:00:10.428Z,17.50
2018-07-28T09:03:35.753Z,9.75
2018-07-28T09:07:01.992Z,10.08
2018-07-28T09:10:26.665Z,10.35
2018-07-28T09:13:51.447Z,10.98
2018-07-28T09:17:17.308Z,9.43
2018-07-28T09:20:42.026Z,11.33
2018-07-28T09:24:09.766Z,12.53
2018-07-28T09:27:34.690Z,11.28
2018-07-28T09:30:59.975Z,10.25
2018-07-28T09:34:26.270Z,8.78
2018-07-28T09:37:51.172Z,19.70
2018-07-28T09:41:15.933Z,7.92
2018-07-28T09:44:41.865Z,9.98
2018-07-28T09:48:06.764Z,8.35
2018-07-28T09:51:31.950Z,8.63
2018-07-28T09:54:56.769Z,10.05
2018-07-28T09:58:21.543Z,7.42
2018-07-28T10:01:47.522Z,8.43
2018-07-28T10:05:12.115Z,7.70
2018-07-28T10:08:39.823Z,8.25
2018-07-28T10:12:04.501Z,9.58
2018-07-28T10:15:29.005Z,11.48
2018-07-28T10:18:53.618Z,7.12
2018-07-28T10:22:19.381Z,8.63
2018-07-28T10:25:43.979Z,9.35
2018-07-28T10:29:09.096Z,7.80
2018-07-28T10:32:37.898Z,6.90
2018-07-28T10:36:02.879Z,10.88
2018-07-28T10:39:28.155Z,11.57
2018-07-28T10:42:53.537Z,9.00
2018-07-28T10:46:22.575Z,10.00
2018-07-28T10:49:48.778Z,7.95
2018-07-28T10:53:13.849Z,11.95
2018-07-28T10:56:38.678Z,8.60
2018-07-28T11:00:03.237Z,7.78
2018-07-28T11:03:28.234Z,8.48
2018-07-28T11:06:52.933Z,8.53
2018-07-28T11:10:17.639Z,8.33
2018-07-28T11:13:42.184Z,8.43
2018-07-28T11:17:07.243Z,7.67
2018-07-28T11:20:31.686Z,6.78
2018-07-28T11:23:58.239Z,7.17
2018-07-28T11:27:22.704Z,7.45
2018-07-28T11:30:47.251Z,7.85
2018-07-28T11:34:28.717Z,10.23
2018-07-28T11:38:24.889Z,7.35
2018-07-28T11:42:06.711Z,12.55
2018-07-28T11:45:31.183Z,8.65
2018-07-28T11:48:56.025Z,7.62
2018-07-28T11:52:20.519Z,8.95
2018-07-28T11:55:44.918Z,8.60
2018-07-28T11:59:09.349Z,8.43
2018-07-28T12:02:33.764Z,9.33
2018-07-28T12:05:58.327Z,7.78
2018-07-28T12:09:22.739Z,7.20
2018-07-28T12:12:47.169Z,7.37
2018-07-28T12:16:11.619Z,7.08
2018-07-28T12:19:36.208Z,9.08
2018-07-28T12:23:00.768Z,8.48
2018-07-28T12:26:25.244Z,8.65
2018-07-28T12:29:49.678Z,7.83
2018-07-28T12:33:13.827Z,8.83
2018-07-28T12:36:38.250Z,10.30
2018-07-28T12:40:02.722Z,9.53
2018-07-28T12:43:27.268Z,8.78
2018-07-28T12:46:51.858Z,9.18
2018-07-28T12:50:16.402Z,8.53
2018-07-28T12:53:41.002Z,8.70
2018-07-28T12:57:05.738Z,7.90
2018-07-28T13:00:30.205Z,7.50
2018-07-28T13:03:54.922Z,9.38
2018-07-28T13:07:19.304Z,8.03
2018-07-28T13:10:43.848Z,8.08
2018-07-28T13:14:08.417Z,10.78
2018-07-28T13:17:32.804Z,8.48
2018-07-28T13:20:57.326Z,7.35
2018-07-28T13:24:21.902Z,8.08
2018-07-28T13:27:46.399Z,9.38
2018-07-28T13:31:10.958Z,8.43
2018-07-28T13:34:35.494Z,7.58
2018-07-28T13:38:00.551Z,8.53
2018-07-28T13:41:25.172Z,8.93
2018-07-28T13:44:49.787Z,8.40
2018-07-28T13:48:14.563Z,8.20
2018-07-28T13:51:39.130Z,7.80
2018-07-28T13:55:03.565Z,8.23
2018-07-28T13:58:28.155Z,8.25
2018-07-28T14:01:52.653Z,7.97
2018-07-28T14:05:17.128Z,7.42
2018-07-28T14:08:41.719Z,6.60
2018-07-28T14:12:06.236Z,7.58
2018-07-28T14:15:30.729Z,6.72
2018-07-28T14:18:55.462Z,7.70
2018-07-28T14:22:20.007Z,7.03
2018-07-28T14:25:44.520Z,6.53
2018-07-28T14:29:09.069Z,6.40
2018-07-28T14:32:33.689Z,7.30
2018-07-28T14:35:58.206Z,7.80
2018-07-28T14:39:22.760Z,7.65
2018-07-28T14:42:47.324Z,6.15
2018-07-28T14:46:15.724Z,5.83
2018-07-28T14:49:40.241Z,5.45
2018-07-28T14:53:04.708Z,7.30
2018-07-28T14:56:29.118Z,7.08
2018-07-28T14:59:53.581Z,5.45
2018-07-28T15:03:18.005Z,6.03
2018-07-28T15:06:42.441Z,5.47
2018-07-28T15:10:06.922Z,6.08
2018-07-28T15:13:31.320Z,5.22
2018-07-28T15:16:55.724Z,5.62
2018-07-28T15:20:20.187Z,5.87
2018-07-28T15:23:44.664Z,4.45
2018-07-28T15:27:09.113Z,5.78
2018-07-28T15:30:33.582Z,5.20
2018-07-28T15:33:58.037Z,4.90
2018-07-28T15:37:22.447Z,4.40
2018-07-28T15:40:46.625Z,5.85
2018-07-28T15:44:11.045Z,4.83
2018-07-28T15:47:35.517Z,6.30
2018-07-28T15:50:59.999Z,6.58
2018-07-28T15:54:24.434Z,5.03
2018-07-28T15:57:48.870Z,4.15
2018-07-28T16:01:13.411Z,3.92
2018-07-28T16:04:37.957Z,5.60
2018-07-28T16:08:02.541Z,5.35
2018-07-28T16:11:27.125Z,5.95
2018-07-28T16:14:51.660Z,7.08
2018-07-28T16:18:16.299Z,7.37
2018-07-28T16:21:40.886Z,7.35
2018-07-28T16:25:05.953Z,10.48
2018-07-28T16:28:30.419Z,7.90
2018-07-28T16:31:57.893Z,8.88
2018-07-28T16:35:22.316Z,14.33
2018-07-28T16:38:46.726Z,6.50
2018-07-28T16:42:11.177Z,7.10
2018-07-28T16:45:35.629Z,5.70
2018-07-28T16:49:00.146Z,4.00
2018-07-28T16:52:24.581Z,4.60
2018-07-28T16:55:48.999Z,6.78
2018-07-28T16:59:13.668Z,9.53
2018-07-28T17:02:38.119Z,8.40
2018-07-28T17:06:02.249Z,6.05
2018-07-28T17:09:26.658Z,4.92
2018-07-28T17:12:51.110Z,3.98
2018-07-28T17:16:15.528Z,5.42
2018-07-28T17:19:39.978Z,13.20
2018-07-28T17:23:04.406Z,4.67
2018-07-28T17:26:28.850Z,5.20
2018-07-28T17:29:53.278Z,6.42
2018-07-28T17:33:17.792Z,3.72
2018-07-28T17:36:42.257Z,5.30
2018-07-28T17:40:06.449Z,8.45
2018-07-28T17:43:31.096Z,6.90
2018-07-28T17:46:56.160Z,5.60
2018-07-28T17:50:20.699Z,3.65
2018-07-28T17:53:45.250Z,6.53
2018-07-28T17:57:09.868Z,4.37
2018-07-28T18:00:34.352Z,5.05
2018-07-28T18:03:58.867Z,4.53
2018-07-28T18:07:23.444Z,4.95
2018-07-28T18:10:47.983Z,4.33
2018-07-28T18:14:12.516Z,6.53
2018-07-28T18:17:37.088Z,4.17
2018-07-28T18:21:01.690Z,10.50
2018-07-28T18:24:26.353Z,5.62
2018-07-28T18:27:50.904Z,6.45
2018-07-28T18:31:15.538Z,5.22
2018-07-28T18:34:40.065Z,6.30
2018-07-28T18:38:04.640Z,10.10
2018-07-28T18:41:29.278Z,6.15
2018-07-28T18:44:53.778Z,5.15
2018-07-28T18:48:18.899Z,7.22
2018-07-28T18:51:43.426Z,6.25
2018-07-28T18:55:07.987Z,10.35
2018-07-28T18:58:32.379Z,5.83
2018-07-28T19:01:56.866Z,5.55
2018-07-28T19:05:21.307Z,4.62
2018-07-28T19:08:50.076Z,6.90
2018-07-28T19:12:14.706Z,10.08
2018-07-28T19:15:39.307Z,6.85
2018-07-28T19:19:09.078Z,12.75
2018-07-28T19:22:38.913Z,5.28
2018-07-28T19:26:03.475Z,8.00
2018-07-28T19:29:33.186Z,8.15
2018-07-28T19:32:57.821Z,6.83
2018-07-28T19:36:27.310Z,4.00
2018-07-28T19:39:51.840Z,9.00
2018-07-28T19:43:16.295Z,6.05
2018-07-28T19:46:40.919Z,5.30
2018-07-28T19:50:05.415Z,7.53
2018-07-28T19:53:29.901Z,5.65
2018-07-28T19:56:54.435Z,8.28
2018-07-28T20:00:18.872Z,8.93
2018-07-28T20:03:43.461Z,4.83
2018-07-28T20:07:08.102Z,4.35
2018-07-28T20:10:32.622Z,5.05
2018-07-28T20:13:57.111Z,8.40
2018-07-28T20:17:22.315Z,7.03
2018-07-28T20:20:46.766Z,11.30
2018-07-28T20:24:11.238Z,10.93
2018-07-28T20:27:35.711Z,7.05
2018-07-28T20:31:00.192Z,8.68
2018-07-28T20:34:24.637Z,6.50
2018-07-28T20:37:49.100Z,4.95
2018-07-28T20:41:13.568Z,9.85
2018-07-28T20:44:38.063Z,9.75
2018-07-28T20:48:02.593Z,4.00
2018-07-28T20:51:27.080Z,10.38
2018-07-28T20:54:51.559Z,8.83
2018-07-28T20:58:16.115Z,7.90
2018-07-28T21:01:40.679Z,7.85
2018-07-28T21:05:05.558Z,7.97
2018-07-28T21:08:30.247Z,8.15
2018-07-28T21:11:54.878Z,8.13
2018-07-28T21:15:19.396Z,10.95
2018-07-28T21:18:43.868Z,10.10
2018-07-28T21:22:08.509Z,6.47
2018-07-28T21:25:32.928Z,7.17
2018-07-28T21:28:57.453Z,10.35
2018-07-28T21:32:21.931Z,10.75
2018-07-28T21:35:46.444Z,12.80
2018-07-28T21:39:11.521Z,7.65
2018-07-28T21:42:36.038Z,6.58
2018-07-28T21:46:00.294Z,7.62
2018-07-28T21:49:24.757Z,7.35
2018-07-28T21:52:49.321Z,12.68
2018-07-28T21:56:13.847Z,11.40
2018-07-28T21:59:38.360Z,10.03
2018-07-28T22:03:03.978Z,11.10
2018-07-28T22:06:28.554Z,11.08
2018-07-28T22:09:53.045Z,12.30
2018-07-28T22:13:18.973Z,13.88
2018-07-28T22:16:43.485Z,8.05
2018-07-28T22:20:08.032Z,11.80
2018-07-28T22:23:32.498Z,9.63
2018-07-28T22:26:58.255Z,5.75
2018-07-28T22:30:23.560Z,10.13
2018-07-28T22:33:48.128Z,7.37
2018-07-28T22:37:12.845Z,7.53
2018-07-28T22:40:37.440Z,13.98
2018-07-28T22:44:01.996Z,9.15
2018-07-28T22:47:26.510Z,9.18
2018-07-28T22:50:51.078Z,10.35
2018-07-28T22:54:15.794Z,10.25
2018-07-28T22:57:40.391Z,9.98
2018-07-28T23:01:04.866Z,4.80
2018-07-28T23:04:29.388Z,13.25
2018-07-28T23:07:53.778Z,7.85
2018-07-28T23:11:18.229Z,10.82
2018-07-28T23:14:42.758Z,9.18
2018-07-28T23:18:07.255Z,13.72
2018-07-28T23:21:31.847Z,10.45
2018-07-28T23:24:56.310Z,8.00
2018-07-28T23:28:20.791Z,9.13
2018-07-28T23:31:45.231Z,9.25
2018-07-28T23:35:10.015Z,9.55
2018-07-28T23:38:34.484Z,14.05
2018-07-28T23:41:58.964Z,12.25
2018-07-28T23:45:23.410Z,11.38
2018-07-28T23:48:47.821Z,12.03
2018-07-28T23:52:12.308Z,10.90
2018-07-28T23:55:38.839Z,9.58
2018-07-28T23:59:03.381Z,11.10
